sensor_id;sensor_type;location;lat;lon;timestamp;temperature;humidity
39983;DHT22;25670;44.782;10.356;2024-01-27T00:02:09;1.50;99.90
39983;DHT22;25670;44.782;10.356;2024-01-27T00:04:36;1.40;99.90
39983;DHT22;25670;44.782;10.356;2024-01-27T00:07:05;1.30;99.90
39983;DHT22;25670;44.782;10.356;2024-01-27T00:09:31;1.60;99.90
39983;DHT22;25670;44.782;10.356;2024-01-27T00:11:57;1.30;99.90
39983;DHT22;25670;44.782;10.356;2024-01-27T00:14:23;1.40;99.90
39983;DHT22;25670;44.782;10.356;2024-01-27T00:16:50;1.50;99.90
39983;DHT22;25670;44.782;10.356;2024-01-27T00:19:16;1.50;99.90
39983;DHT22;25670;44.782;10.356;2024-01-27T00:21:42;0.90;99.90
39983;DHT22;25670;44.782;10.356;2024-01-27T00:24:08;1.40;99.90
39983;DHT22;25670;44.782;10.356;2024-01-27T00:29:01;1.20;99.90
39983;DHT22;25670;44.782;10.356;2024-01-27T00:36:20;1.20;99.90
39983;DHT22;25670;44.782;10.356;2024-01-27T00:38:46;1.00;99.90
39983;DHT22;25670;44.782;10.356;2024-01-27T00:41:17;0.90;99.90
39983;DHT22;25670;44.782;10.356;2024-01-27T00:43:43;0.80;99.90
39983;DHT22;25670;44.782;10.356;2024-01-27T00:48:35;0.80;99.90
39983;DHT22;25670;44.782;10.356;2024-01-27T00:51:02;0.90;99.90
39983;DHT22;25670;44.782;10.356;2024-01-27T00:58:21;0.80;99.90
39983;DHT22;25670;44.782;10.356;2024-01-27T01:00:47;0.30;99.90
39983;DHT22;25670;44.782;10.356;2024-01-27T01:03:13;0.70;99.90
39983;DHT22;25670;44.782;10.356;2024-01-27T01:05:39;0.80;99.90
39983;DHT22;25670;44.782;10.356;2024-01-27T01:08:05;0.80;99.90
39983;DHT22;25670;44.782;10.356;2024-01-27T01:10:32;0.80;99.90
39983;DHT22;25670;44.782;10.356;2024-01-27T01:12:59;0.00;99.90
39983;DHT22;25670;44.782;10.356;2024-01-27T01:15:25;0.60;99.90
39983;DHT22;25670;44.782;10.356;2024-01-27T01:27:37;0.40;99.90
39983;DHT22;25670;44.782;10.356;2024-01-27T01:30:04;0.60;99.90
39983;DHT22;25670;44.782;10.356;2024-01-27T01:32:30;0.70;99.90
39983;DHT22;25670;44.782;10.356;2024-01-27T01:34:56;0.60;99.90
39983;DHT22;25670;44.782;10.356;2024-01-27T01:37:22;0.60;99.90
39983;DHT22;25670;44.782;10.356;2024-01-27T01:42:15;-0.20;99.90
39983;DHT22;25670;44.782;10.356;2024-01-27T01:47:08;0.30;99.90
39983;DHT22;25670;44.782;10.356;2024-01-27T01:49:35;0.30;99.90
39983;DHT22;25670;44.782;10.356;2024-01-27T01:52:01;0.40;99.90
39983;DHT22;25670;44.782;10.356;2024-01-27T01:54:28;0.60;99.90
39983;DHT22;25670;44.782;10.356;2024-01-27T01:56:58;0.70;99.90
39983;DHT22;25670;44.782;10.356;2024-01-27T01:59:25;1.00;99.90
39983;DHT22;25670;44.782;10.356;2024-01-27T02:01:51;1.00;99.90
39983;DHT22;25670;44.782;10.356;2024-01-27T02:04:17;1.00;99.90
39983;DHT22;25670;44.782;10.356;2024-01-27T02:06:43;0.70;99.90
39983;DHT22;25670;44.782;10.356;2024-01-27T02:09:10;1.10;99.90
39983;DHT22;25670;44.782;10.356;2024-01-27T02:11:36;1.10;99.90
39983;DHT22;25670;44.782;10.356;2024-01-27T02:14:02;1.10;99.90
39983;DHT22;25670;44.782;10.356;2024-01-27T02:16:28;1.20;99.90
39983;DHT22;25670;44.782;10.356;2024-01-27T02:18:55;1.20;99.90
39983;DHT22;25670;44.782;10.356;2024-01-27T02:21:21;0.90;99.90
39983;DHT22;25670;44.782;10.356;2024-01-27T02:23:47;1.10;99.90
39983;DHT22;25670;44.782;10.356;2024-01-27T02:26:13;1.00;99.90
39983;DHT22;25670;44.782;10.356;2024-01-27T02:28:39;1.30;99.90
39983;DHT22;25670;44.782;10.356;2024-01-27T02:33:32;1.30;99.90
39983;DHT22;25670;44.782;10.356;2024-01-27T02:35:58;1.60;99.90
39983;DHT22;25670;44.782;10.356;2024-01-27T02:40:51;1.20;99.90
39983;DHT22;25670;44.782;10.356;2024-01-27T02:43:17;1.30;99.90
39983;DHT22;25670;44.782;10.356;2024-01-27T02:45:43;1.80;99.90
39983;DHT22;25670;44.782;10.356;2024-01-27T02:48:10;1.10;99.90
39983;DHT22;25670;44.782;10.356;2024-01-27T02:50:36;1.10;99.90
39983;DHT22;25670;44.782;10.356;2024-01-27T02:53:02;1.20;99.90
39983;DHT22;25670;44.782;10.356;2024-01-27T03:00:21;1.00;99.90
39983;DHT22;25670;44.782;10.356;2024-01-27T03:05:14;0.70;99.90
39983;DHT22;25670;44.782;10.356;2024-01-27T03:10:07;0.50;99.90
39983;DHT22;25670;44.782;10.356;2024-01-27T03:15:00;0.30;99.90
39983;DHT22;25670;44.782;10.356;2024-01-27T03:17:26;0.30;99.90
39983;DHT22;25670;44.782;10.356;2024-01-27T03:19:52;1.20;99.90
39983;DHT22;25670;44.782;10.356;2024-01-27T03:24:45;0.10;99.90
39983;DHT22;25670;44.782;10.356;2024-01-27T03:27:11;0.30;99.90
39983;DHT22;25670;44.782;10.356;2024-01-27T03:29:37;0.50;99.90
39983;DHT22;25670;44.782;10.356;2024-01-27T03:32:04;0.60;99.90
39983;DHT22;25670;44.782;10.356;2024-01-27T03:34:30;0.50;99.90
39983;DHT22;25670;44.782;10.356;2024-01-27T03:36:56;0.70;99.90
39983;DHT22;25670;44.782;10.356;2024-01-27T03:39:23;0.60;99.90
39983;DHT22;25670;44.782;10.356;2024-01-27T03:41:49;0.80;99.90
39983;DHT22;25670;44.782;10.356;2024-01-27T03:44:15;0.70;99.90
39983;DHT22;25670;44.782;10.356;2024-01-27T03:49:08;0.60;99.90
39983;DHT22;25670;44.782;10.356;2024-01-27T03:51:34;0.80;99.90
39983;DHT22;25670;44.782;10.356;2024-01-27T03:54:00;0.50;99.90
39983;DHT22;25670;44.782;10.356;2024-01-27T03:56:27;0.30;99.90
39983;DHT22;25670;44.782;10.356;2024-01-27T03:58:53;0.30;99.90
39983;DHT22;25670;44.782;10.356;2024-01-27T04:01:19;0.20;99.90
39983;DHT22;25670;44.782;10.356;2024-01-27T04:03:45;2.00;99.90
39983;DHT22;25670;44.782;10.356;2024-01-27T04:06:12;-0.10;99.90
39983;DHT22;25670;44.782;10.356;2024-01-27T04:08:38;-0.10;99.90
39983;DHT22;25670;44.782;10.356;2024-01-27T04:11:05;0.00;99.90
39983;DHT22;25670;44.782;10.356;2024-01-27T04:15:58;-0.10;99.90
39983;DHT22;25670;44.782;10.356;2024-01-27T04:18:27;-0.20;99.90
39983;DHT22;25670;44.782;10.356;2024-01-27T04:20:53;1.00;99.90
39983;DHT22;25670;44.782;10.356;2024-01-27T04:23:19;-0.20;99.90
39983;DHT22;25670;44.782;10.356;2024-01-27T04:25:45;-0.20;99.90
39983;DHT22;25670;44.782;10.356;2024-01-27T04:28:12;-0.20;99.90
39983;DHT22;25670;44.782;10.356;2024-01-27T04:30:39;-0.50;99.90
39983;DHT22;25670;44.782;10.356;2024-01-27T04:33:05;-0.10;99.90
39983;DHT22;25670;44.782;10.356;2024-01-27T04:35:33;-0.50;99.90
39983;DHT22;25670;44.782;10.356;2024-01-27T04:37:59;-0.40;99.90
39983;DHT22;25670;44.782;10.356;2024-01-27T04:40:26;-0.60;99.90
39983;DHT22;25670;44.782;10.356;2024-01-27T04:42:52;-0.50;99.90
39983;DHT22;25670;44.782;10.356;2024-01-27T04:45:18;-0.50;99.90
39983;DHT22;25670;44.782;10.356;2024-01-27T04:47:45;-0.40;99.90
39983;DHT22;25670;44.782;10.356;2024-01-27T04:50:11;-0.50;99.90
39983;DHT22;25670;44.782;10.356;2024-01-27T04:55:04;-0.20;99.90
39983;DHT22;25670;44.782;10.356;2024-01-27T04:57:30;0.00;99.90
39983;DHT22;25670;44.782;10.356;2024-01-27T04:59:57;0.30;99.90
39983;DHT22;25670;44.782;10.356;2024-01-27T05:02:23;0.20;99.90
39983;DHT22;25670;44.782;10.356;2024-01-27T05:04:50;0.50;99.90
39983;DHT22;25670;44.782;10.356;2024-01-27T05:07:16;-0.20;99.90
39983;DHT22;25670;44.782;10.356;2024-01-27T05:09:42;0.10;99.90
39983;DHT22;25670;44.782;10.356;2024-01-27T05:12:08;-0.10;99.90
39983;DHT22;25670;44.782;10.356;2024-01-27T05:14:35;0.20;99.90
39983;DHT22;25670;44.782;10.356;2024-01-27T05:17:01;0.00;99.90
39983;DHT22;25670;44.782;10.356;2024-01-27T05:19:27;0.10;99.90
39983;DHT22;25670;44.782;10.356;2024-01-27T05:21:53;0.10;99.90
39983;DHT22;25670;44.782;10.356;2024-01-27T05:24:19;0.30;99.90
39983;DHT22;25670;44.782;10.356;2024-01-27T05:34:10;0.30;99.90
39983;DHT22;25670;44.782;10.356;2024-01-27T05:36:36;0.20;99.90
39983;DHT22;25670;44.782;10.356;2024-01-27T05:39:02;0.00;99.90
39983;DHT22;25670;44.782;10.356;2024-01-27T05:41:31;-0.10;99.90
39983;DHT22;25670;44.782;10.356;2024-01-27T05:43:57;0.00;99.90
39983;DHT22;25670;44.782;10.356;2024-01-27T05:46:24;-0.30;99.90
39983;DHT22;25670;44.782;10.356;2024-01-27T05:48:51;-0.20;99.90
39983;DHT22;25670;44.782;10.356;2024-01-27T05:51:21;-1.40;99.90
39983;DHT22;25670;44.782;10.356;2024-01-27T05:53:49;-0.30;99.90
39983;DHT22;25670;44.782;10.356;2024-01-27T05:56:15;-0.10;99.90
39983;DHT22;25670;44.782;10.356;2024-01-27T05:58:44;0.00;99.90
39983;DHT22;25670;44.782;10.356;2024-01-27T06:01:10;0.00;99.90
39983;DHT22;25670;44.782;10.356;2024-01-27T06:03:36;0.10;99.90
39983;DHT22;25670;44.782;10.356;2024-01-27T06:06:03;0.00;99.90
39983;DHT22;25670;44.782;10.356;2024-01-27T06:08:29;-0.10;99.90
39983;DHT22;25670;44.782;10.356;2024-01-27T06:13:22;-0.10;99.90
39983;DHT22;25670;44.782;10.356;2024-01-27T06:15:48;0.50;99.90
39983;DHT22;25670;44.782;10.356;2024-01-27T06:23:08;-0.50;99.90
39983;DHT22;25670;44.782;10.356;2024-01-27T06:25:34;-0.60;99.90
39983;DHT22;25670;44.782;10.356;2024-01-27T06:28:00;-0.50;99.90
39983;DHT22;25670;44.782;10.356;2024-01-27T06:30:27;-0.50;99.90
39983;DHT22;25670;44.782;10.356;2024-01-27T06:35:19;-0.70;99.90
39983;DHT22;25670;44.782;10.356;2024-01-27T06:37:46;-0.60;99.90
39983;DHT22;25670;44.782;10.356;2024-01-27T06:40:13;-0.70;99.90
39983;DHT22;25670;44.782;10.356;2024-01-27T06:42:40;-0.40;99.90
39983;DHT22;25670;44.782;10.356;2024-01-27T06:45:06;-0.60;99.90
39983;DHT22;25670;44.782;10.356;2024-01-27T06:47:32;-0.60;99.90
39983;DHT22;25670;44.782;10.356;2024-01-27T06:49:59;-0.60;99.90
39983;DHT22;25670;44.782;10.356;2024-01-27T06:52:25;-0.60;99.90
39983;DHT22;25670;44.782;10.356;2024-01-27T06:54:51;-0.60;99.90
39983;DHT22;25670;44.782;10.356;2024-01-27T06:57:21;-0.60;99.90
39983;DHT22;25670;44.782;10.356;2024-01-27T06:59:48;-0.50;99.90
39983;DHT22;25670;44.782;10.356;2024-01-27T07:02:27;-0.60;99.90
39983;DHT22;25670;44.782;10.356;2024-01-27T07:04:55;0.30;99.90
39983;DHT22;25670;44.782;10.356;2024-01-27T07:07:28;-0.50;99.90
39983;DHT22;25670;44.782;10.356;2024-01-27T07:09:55;0.20;99.90
39983;DHT22;25670;44.782;10.356;2024-01-27T07:12:22;0.60;99.90
39983;DHT22;25670;44.782;10.356;2024-01-27T07:17:15;-0.50;99.90
39983;DHT22;25670;44.782;10.356;2024-01-27T07:22:07;0.10;99.90
39983;DHT22;25670;44.782;10.356;2024-01-27T07:24:34;0.00;99.90
39983;DHT22;25670;44.782;10.356;2024-01-27T07:27:01;0.20;99.90
39983;DHT22;25670;44.782;10.356;2024-01-27T07:29:28;0.40;99.90
39983;DHT22;25670;44.782;10.356;2024-01-27T07:31:54;0.40;99.90
39983;DHT22;25670;44.782;10.356;2024-01-27T07:34:21;0.40;99.90
39983;DHT22;25670;44.782;10.356;2024-01-27T07:36:47;0.80;99.90
39983;DHT22;25670;44.782;10.356;2024-01-27T07:39:16;0.70;99.90
39983;DHT22;25670;44.782;10.356;2024-01-27T07:41:43;0.60;99.90
39983;DHT22;25670;44.782;10.356;2024-01-27T07:46:40;0.70;99.90
39983;DHT22;25670;44.782;10.356;2024-01-27T07:49:07;0.60;99.90
39983;DHT22;25670;44.782;10.356;2024-01-27T07:51:34;0.50;99.90
39983;DHT22;25670;44.782;10.356;2024-01-27T07:54:01;0.60;99.90
39983;DHT22;25670;44.782;10.356;2024-01-27T07:56:28;0.70;99.90
39983;DHT22;25670;44.782;10.356;2024-01-27T08:01:21;0.60;99.90
39983;DHT22;25670;44.782;10.356;2024-01-27T08:03:48;0.70;99.90
39983;DHT22;25670;44.782;10.356;2024-01-27T08:06:16;0.60;99.90
39983;DHT22;25670;44.782;10.356;2024-01-27T08:08:49;0.80;99.90
39983;DHT22;25670;44.782;10.356;2024-01-27T08:11:15;0.50;99.90
39983;DHT22;25670;44.782;10.356;2024-01-27T08:13:43;0.60;99.90
39983;DHT22;25670;44.782;10.356;2024-01-27T08:16:10;0.70;99.90
39983;DHT22;25670;44.782;10.356;2024-01-27T08:18:41;0.60;99.90
39983;DHT22;25670;44.782;10.356;2024-01-27T08:21:10;1.10;99.90
39983;DHT22;25670;44.782;10.356;2024-01-27T08:23:36;0.60;99.90
39983;DHT22;25670;44.782;10.356;2024-01-27T08:26:03;0.70;99.90
39983;DHT22;25670;44.782;10.356;2024-01-27T08:28:29;0.80;99.90
39983;DHT22;25670;44.782;10.356;2024-01-27T08:30:55;0.90;99.90
39983;DHT22;25670;44.782;10.356;2024-01-27T08:33:22;1.10;99.90
39983;DHT22;25670;44.782;10.356;2024-01-27T08:35:48;0.90;99.90
39983;DHT22;25670;44.782;10.356;2024-01-27T08:38:15;0.90;99.90
39983;DHT22;25670;44.782;10.356;2024-01-27T08:40:41;1.20;99.90
39983;DHT22;25670;44.782;10.356;2024-01-27T08:43:07;1.30;99.90
39983;DHT22;25670;44.782;10.356;2024-01-27T08:45:34;1.50;99.90
39983;DHT22;25670;44.782;10.356;2024-01-27T08:48:00;1.60;99.90
39983;DHT22;25670;44.782;10.356;2024-01-27T08:50:26;1.40;99.90
39983;DHT22;25670;44.782;10.356;2024-01-27T08:52:52;1.70;99.90
39983;DHT22;25670;44.782;10.356;2024-01-27T08:55:19;1.20;99.90
39983;DHT22;25670;44.782;10.356;2024-01-27T08:57:48;1.20;99.90
39983;DHT22;25670;44.782;10.356;2024-01-27T09:00:15;1.80;99.90
39983;DHT22;25670;44.782;10.356;2024-01-27T09:02:43;1.80;99.90
39983;DHT22;25670;44.782;10.356;2024-01-27T09:05:09;1.90;99.90
39983;DHT22;25670;44.782;10.356;2024-01-27T09:07:36;1.90;99.90
39983;DHT22;25670;44.782;10.356;2024-01-27T09:10:02;2.10;99.90
39983;DHT22;25670;44.782;10.356;2024-01-27T09:12:29;2.20;99.90
39983;DHT22;25670;44.782;10.356;2024-01-27T09:14:56;2.20;99.90
39983;DHT22;25670;44.782;10.356;2024-01-27T09:17:22;2.30;99.90
39983;DHT22;25670;44.782;10.356;2024-01-27T09:19:49;2.30;99.90
39983;DHT22;25670;44.782;10.356;2024-01-27T09:22:15;2.50;99.90
39983;DHT22;25670;44.782;10.356;2024-01-27T09:24:42;2.30;99.90
39983;DHT22;25670;44.782;10.356;2024-01-27T09:27:09;2.60;99.90
39983;DHT22;25670;44.782;10.356;2024-01-27T09:29:38;2.50;99.90
39983;DHT22;25670;44.782;10.356;2024-01-27T09:32:05;2.50;99.90
39983;DHT22;25670;44.782;10.356;2024-01-27T09:34:31;2.60;99.90
39983;DHT22;25670;44.782;10.356;2024-01-27T09:36:58;2.70;99.90
39983;DHT22;25670;44.782;10.356;2024-01-27T09:39:24;2.80;99.90
39983;DHT22;25670;44.782;10.356;2024-01-27T09:41:51;3.10;99.90
39983;DHT22;25670;44.782;10.356;2024-01-27T09:44:18;2.80;99.90
39983;DHT22;25670;44.782;10.356;2024-01-27T09:46:48;2.90;99.90
39983;DHT22;25670;44.782;10.356;2024-01-27T09:49:15;3.00;99.90
39983;DHT22;25670;44.782;10.356;2024-01-27T09:51:42;3.00;99.90
39983;DHT22;25670;44.782;10.356;2024-01-27T09:54:08;3.00;99.90
39983;DHT22;25670;44.782;10.356;2024-01-27T09:56:34;3.10;99.90
39983;DHT22;25670;44.782;10.356;2024-01-27T09:59:01;3.20;99.90
39983;DHT22;25670;44.782;10.356;2024-01-27T10:01:27;3.20;99.90
39983;DHT22;25670;44.782;10.356;2024-01-27T10:03:55;3.30;99.90
39983;DHT22;25670;44.782;10.356;2024-01-27T10:06:21;3.40;99.90
39983;DHT22;25670;44.782;10.356;2024-01-27T10:08:53;3.50;99.90
39983;DHT22;25670;44.782;10.356;2024-01-27T10:11:21;3.60;99.90
39983;DHT22;25670;44.782;10.356;2024-01-27T10:13:58;3.70;99.90
39983;DHT22;25670;44.782;10.356;2024-01-27T10:16:28;4.00;99.90
39983;DHT22;25670;44.782;10.356;2024-01-27T10:19:02;3.90;99.90
39983;DHT22;25670;44.782;10.356;2024-01-27T10:21:29;4.10;99.90
39983;DHT22;25670;44.782;10.356;2024-01-27T10:23:56;4.20;99.90
39983;DHT22;25670;44.782;10.356;2024-01-27T10:26:23;4.40;99.90
39983;DHT22;25670;44.782;10.356;2024-01-27T10:28:56;4.50;99.90
39983;DHT22;25670;44.782;10.356;2024-01-27T10:31:41;4.70;99.90
39983;DHT22;25670;44.782;10.356;2024-01-27T10:34:08;4.80;99.90
39983;DHT22;25670;44.782;10.356;2024-01-27T10:36:42;4.90;99.90
39983;DHT22;25670;44.782;10.356;2024-01-27T10:39:21;5.20;99.90
39983;DHT22;25670;44.782;10.356;2024-01-27T10:41:49;3.30;99.90
39983;DHT22;25670;44.782;10.356;2024-01-27T10:44:17;5.30;99.90
39983;DHT22;25670;44.782;10.356;2024-01-27T10:46:46;5.90;99.90
39983;DHT22;25670;44.782;10.356;2024-01-27T10:49:14;5.60;99.90
39983;DHT22;25670;44.782;10.356;2024-01-27T10:51:54;5.70;99.90
39983;DHT22;25670;44.782;10.356;2024-01-27T10:54:25;5.80;99.90
39983;DHT22;25670;44.782;10.356;2024-01-27T10:56:56;6.00;99.90
39983;DHT22;25670;44.782;10.356;2024-01-27T10:59:26;6.10;99.90
39983;DHT22;25670;44.782;10.356;2024-01-27T11:01:54;6.20;99.90
39983;DHT22;25670;44.782;10.356;2024-01-27T11:04:20;6.30;99.90
39983;DHT22;25670;44.782;10.356;2024-01-27T11:06:48;6.40;99.90
39983;DHT22;25670;44.782;10.356;2024-01-27T11:09:15;6.40;99.90
39983;DHT22;25670;44.782;10.356;2024-01-27T11:11:45;6.40;99.90
39983;DHT22;25670;44.782;10.356;2024-01-27T11:14:12;6.60;99.90
39983;DHT22;25670;44.782;10.356;2024-01-27T11:16:38;6.50;99.90
39983;DHT22;25670;44.782;10.356;2024-01-27T11:19:11;6.60;99.90
39983;DHT22;25670;44.782;10.356;2024-01-27T11:21:38;6.60;99.90
39983;DHT22;25670;44.782;10.356;2024-01-27T11:24:17;6.60;99.90
39983;DHT22;25670;44.782;10.356;2024-01-27T11:26:44;6.60;99.90
39983;DHT22;25670;44.782;10.356;2024-01-27T11:29:11;6.70;99.90
39983;DHT22;25670;44.782;10.356;2024-01-27T11:31:46;6.60;99.90
39983;DHT22;25670;44.782;10.356;2024-01-27T11:34:14;6.60;99.90
39983;DHT22;25670;44.782;10.356;2024-01-27T11:36:44;6.60;99.90
39983;DHT22;25670;44.782;10.356;2024-01-27T11:39:27;6.70;99.90
39983;DHT22;25670;44.782;10.356;2024-01-27T11:42:07;6.90;99.90
39983;DHT22;25670;44.782;10.356;2024-01-27T11:44:38;7.00;99.90
39983;DHT22;25670;44.782;10.356;2024-01-27T11:47:07;7.20;99.90
39983;DHT22;25670;44.782;10.356;2024-01-27T11:49:39;7.30;99.90
39983;DHT22;25670;44.782;10.356;2024-01-27T11:52:06;7.50;99.90
39983;DHT22;25670;44.782;10.356;2024-01-27T11:54:33;7.70;97.70
39983;DHT22;25670;44.782;10.356;2024-01-27T11:57:00;7.80;99.50
39983;DHT22;25670;44.782;10.356;2024-01-27T11:59:27;7.80;99.90
39983;DHT22;25670;44.782;10.356;2024-01-27T12:01:54;7.90;96.90
39983;DHT22;25670;44.782;10.356;2024-01-27T12:04:20;8.00;89.80
39983;DHT22;25670;44.782;10.356;2024-01-27T12:06:47;8.00;89.30
39983;DHT22;25670;44.782;10.356;2024-01-27T12:09:14;8.20;91.60
39983;DHT22;25670;44.782;10.356;2024-01-27T12:11:42;8.20;82.00
39983;DHT22;25670;44.782;10.356;2024-01-27T12:14:09;8.30;72.70
39983;DHT22;25670;44.782;10.356;2024-01-27T12:16:35;8.50;76.90
39983;DHT22;25670;44.782;10.356;2024-01-27T12:19:02;8.60;76.20
39983;DHT22;25670;44.782;10.356;2024-01-27T12:21:28;8.80;68.50
39983;DHT22;25670;44.782;10.356;2024-01-27T12:23:56;9.00;53.80
39983;DHT22;25670;44.782;10.356;2024-01-27T12:26:27;9.10;40.90
39983;DHT22;25670;44.782;10.356;2024-01-27T12:28:55;9.20;34.50
39983;DHT22;25670;44.782;10.356;2024-01-27T12:31:25;9.40;36.20
39983;DHT22;25670;44.782;10.356;2024-01-27T12:33:53;9.50;17.40
39983;DHT22;25670;44.782;10.356;2024-01-27T12:36:21;9.60;20.10
39983;DHT22;25670;44.782;10.356;2024-01-27T12:38:54;9.80;14.20
39983;DHT22;25670;44.782;10.356;2024-01-27T12:41:21;10.20;4.40
39983;DHT22;25670;44.782;10.356;2024-01-27T12:43:47;10.40;1.00
39983;DHT22;25670;44.782;10.356;2024-01-27T12:46:14;11.00;1.00
39983;DHT22;25670;44.782;10.356;2024-01-27T12:48:41;11.60;1.00
39983;DHT22;25670;44.782;10.356;2024-01-27T12:51:07;11.70;1.00
39983;DHT22;25670;44.782;10.356;2024-01-27T12:53:33;12.10;99.90
39983;DHT22;25670;44.782;10.356;2024-01-27T12:56:00;12.60;99.90
39983;DHT22;25670;44.782;10.356;2024-01-27T12:58:26;12.80;99.90
39983;DHT22;25670;44.782;10.356;2024-01-27T13:00:53;12.90;99.90
39983;DHT22;25670;44.782;10.356;2024-01-27T13:03:20;13.30;99.90
39983;DHT22;25670;44.782;10.356;2024-01-27T13:05:46;13.70;99.90
39983;DHT22;25670;44.782;10.356;2024-01-27T13:08:12;13.80;99.90
39983;DHT22;25670;44.782;10.356;2024-01-27T13:10:39;13.80;99.90
39983;DHT22;25670;44.782;10.356;2024-01-27T13:13:05;13.60;99.90
39983;DHT22;25670;44.782;10.356;2024-01-27T13:15:31;14.20;1.00
39983;DHT22;25670;44.782;10.356;2024-01-27T13:17:57;15.10;99.90
39983;DHT22;25670;44.782;10.356;2024-01-27T13:20:24;15.70;99.90
39983;DHT22;25670;44.782;10.356;2024-01-27T13:22:50;15.00;99.90
39983;DHT22;25670;44.782;10.356;2024-01-27T13:25:19;14.60;99.90
39983;DHT22;25670;44.782;10.356;2024-01-27T13:27:45;14.80;99.90
39983;DHT22;25670;44.782;10.356;2024-01-27T13:30:12;14.20;99.90
39983;DHT22;25670;44.782;10.356;2024-01-27T13:32:39;13.90;14.00
39983;DHT22;25670;44.782;10.356;2024-01-27T13:35:07;14.30;1.00
39983;DHT22;25670;44.782;10.356;2024-01-27T13:37:33;14.20;1.00
39983;DHT22;25670;44.782;10.356;2024-01-27T13:40:00;14.90;99.90
39983;DHT22;25670;44.782;10.356;2024-01-27T13:42:27;15.50;1.00
39983;DHT22;25670;44.782;10.356;2024-01-27T13:44:53;15.30;99.90
39983;DHT22;25670;44.782;10.356;2024-01-27T13:47:20;15.70;1.00
39983;DHT22;25670;44.782;10.356;2024-01-27T13:49:47;15.20;99.90
39983;DHT22;25670;44.782;10.356;2024-01-27T13:52:13;14.40;99.90
39983;DHT22;25670;44.782;10.356;2024-01-27T13:54:40;13.80;99.90
39983;DHT22;25670;44.782;10.356;2024-01-27T13:57:07;13.90;99.90
39983;DHT22;25670;44.782;10.356;2024-01-27T13:59:34;13.40;99.90
39983;DHT22;25670;44.782;10.356;2024-01-27T14:02:00;13.40;1.00
39983;DHT22;25670;44.782;10.356;2024-01-27T14:04:26;13.30;1.00
39983;DHT22;25670;44.782;10.356;2024-01-27T14:06:56;12.60;99.90
39983;DHT22;25670;44.782;10.356;2024-01-27T14:09:23;13.20;99.90
39983;DHT22;25670;44.782;10.356;2024-01-27T14:11:50;13.50;99.90
39983;DHT22;25670;44.782;10.356;2024-01-27T14:14:16;13.30;29.00
39983;DHT22;25670;44.782;10.356;2024-01-27T14:16:46;12.20;96.90
39983;DHT22;25670;44.782;10.356;2024-01-27T14:19:13;12.60;99.90
39983;DHT22;25670;44.782;10.356;2024-01-27T14:21:39;13.00;4.80
39983;DHT22;25670;44.782;10.356;2024-01-27T14:24:07;13.00;99.90
39983;DHT22;25670;44.782;10.356;2024-01-27T14:26:34;13.50;99.90
39983;DHT22;25670;44.782;10.356;2024-01-27T14:29:01;13.70;99.90
39983;DHT22;25670;44.782;10.356;2024-01-27T14:31:27;14.30;99.90
39983;DHT22;25670;44.782;10.356;2024-01-27T14:33:56;14.60;9.10
39983;DHT22;25670;44.782;10.356;2024-01-27T14:36:23;14.00;99.90
39983;DHT22;25670;44.782;10.356;2024-01-27T14:38:50;15.00;99.90
39983;DHT22;25670;44.782;10.356;2024-01-27T14:41:17;14.30;99.90
39983;DHT22;25670;44.782;10.356;2024-01-27T14:43:43;14.10;1.00
39983;DHT22;25670;44.782;10.356;2024-01-27T14:46:10;14.30;1.00
39983;DHT22;25670;44.782;10.356;2024-01-27T14:48:36;14.70;1.00
39983;DHT22;25670;44.782;10.356;2024-01-27T14:51:03;14.20;99.90
39983;DHT22;25670;44.782;10.356;2024-01-27T14:53:30;14.50;99.90
39983;DHT22;25670;44.782;10.356;2024-01-27T14:55:56;15.70;1.00
39983;DHT22;25670;44.782;10.356;2024-01-27T14:58:23;16.40;99.90
39983;DHT22;25670;44.782;10.356;2024-01-27T15:00:49;15.60;1.00
39983;DHT22;25670;44.782;10.356;2024-01-27T15:03:22;16.30;9.40
39983;DHT22;25670;44.782;10.356;2024-01-27T15:05:52;16.90;24.50
39983;DHT22;25670;44.782;10.356;2024-01-27T15:08:19;16.80;1.00
39983;DHT22;25670;44.782;10.356;2024-01-27T15:10:46;16.30;1.00
39983;DHT22;25670;44.782;10.356;2024-01-27T15:13:14;16.50;1.00
39983;DHT22;25670;44.782;10.356;2024-01-27T15:15:42;16.40;1.00
39983;DHT22;25670;44.782;10.356;2024-01-27T15:18:09;17.10;99.90
39983;DHT22;25670;44.782;10.356;2024-01-27T15:20:35;16.80;99.90
39983;DHT22;25670;44.782;10.356;2024-01-27T15:23:02;15.50;1.00
39983;DHT22;25670;44.782;10.356;2024-01-27T15:25:29;15.10;1.00
39983;DHT22;25670;44.782;10.356;2024-01-27T15:27:56;15.00;99.90
39983;DHT22;25670;44.782;10.356;2024-01-27T15:30:23;15.10;99.90
39983;DHT22;25670;44.782;10.356;2024-01-27T15:32:49;15.40;99.90
39983;DHT22;25670;44.782;10.356;2024-01-27T15:35:16;15.20;99.90
39983;DHT22;25670;44.782;10.356;2024-01-27T15:37:42;15.00;99.90
39983;DHT22;25670;44.782;10.356;2024-01-27T15:40:09;14.80;99.90
39983;DHT22;25670;44.782;10.356;2024-01-27T15:42:35;14.70;99.90
39983;DHT22;25670;44.782;10.356;2024-01-27T15:45:04;15.00;99.90
39983;DHT22;25670;44.782;10.356;2024-01-27T15:47:31;15.20;99.90
39983;DHT22;25670;44.782;10.356;2024-01-27T15:49:57;15.00;99.90
39983;DHT22;25670;44.782;10.356;2024-01-27T15:52:30;14.50;99.90
39983;DHT22;25670;44.782;10.356;2024-01-27T15:54:57;13.70;99.90
39983;DHT22;25670;44.782;10.356;2024-01-27T15:57:23;13.10;20.20
39983;DHT22;25670;44.782;10.356;2024-01-27T15:59:51;12.20;91.70
39983;DHT22;25670;44.782;10.356;2024-01-27T16:02:18;12.00;99.90
39983;DHT22;25670;44.782;10.356;2024-01-27T16:04:44;11.70;99.90
39983;DHT22;25670;44.782;10.356;2024-01-27T16:07:11;11.00;99.90
39983;DHT22;25670;44.782;10.356;2024-01-27T16:09:38;10.30;1.00
39983;DHT22;25670;44.782;10.356;2024-01-27T16:12:07;9.40;3.00
39983;DHT22;25670;44.782;10.356;2024-01-27T16:14:34;8.90;42.70
39983;DHT22;25670;44.782;10.356;2024-01-27T16:17:01;8.50;69.00
39983;DHT22;25670;44.782;10.356;2024-01-27T16:19:28;8.20;97.40
39983;DHT22;25670;44.782;10.356;2024-01-27T16:21:55;7.80;99.90
39983;DHT22;25670;44.782;10.356;2024-01-27T16:24:21;7.50;99.90
39983;DHT22;25670;44.782;10.356;2024-01-27T16:26:48;7.30;99.90
39983;DHT22;25670;44.782;10.356;2024-01-27T16:29:14;7.00;99.90
39983;DHT22;25670;44.782;10.356;2024-01-27T16:31:41;6.80;99.90
39983;DHT22;25670;44.782;10.356;2024-01-27T16:34:07;7.10;99.90
39983;DHT22;25670;44.782;10.356;2024-01-27T16:36:36;6.30;99.90
39983;DHT22;25670;44.782;10.356;2024-01-27T16:39:03;6.10;99.90
39983;DHT22;25670;44.782;10.356;2024-01-27T16:41:29;5.90;99.90
39983;DHT22;25670;44.782;10.356;2024-01-27T16:43:56;5.70;99.90
39983;DHT22;25670;44.782;10.356;2024-01-27T16:46:23;5.50;99.90
39983;DHT22;25670;44.782;10.356;2024-01-27T16:48:50;5.50;99.90
39983;DHT22;25670;44.782;10.356;2024-01-27T16:51:17;5.30;99.90